WIMM

Medan / Polonia International Airport

Medan-Sumatra Island, Indonesia
TAF WIMM 251700Z 2518/2618 23004KT 2500 BR SCT018 BECMG 2602/2604 34010KT 9000 FEW017CB SCT018 BECMG 2610/2612 VRB03KT 3000 BR
Issued Valid From Valid To
Apr-25 @ 17:00 UTC
(an hour ago)
Apr-25 @ 18:00 UTC
(8 minutes ago)
Apr-26 @ 18:00 UTC
(in 24 hours)
Apr-25 @ 18:00 to Apr-26 @ 02:00
TAF WIMM 251700Z 2518/2618 23004KT 2500 BR SCT018
Wind Visibility Clouds Conditions
230° at 4 knots 2,494 meters
  • Scattered at 1,800' AGL
  • Mist
Becoming Apr-26 @ 02:00 to Apr-26 @ 10:00
BECMG 2602/2604 34010KT 9000 FEW017CB SCT018
Wind Visibility Clouds Conditions
340° at 10 knots 8,996 meters
  • Few at 1,700' AGL
  • Scattered at 1,800' AGL
  • Mist
Becoming Apr-26 @ 10:00 to Apr-26 @ 18:00
BECMG 2610/2612 VRB03KT 3000 BR
Wind Visibility Clouds Conditions
Variable at 3 knots 2,993 meters
  • Few at 1,700' AGL
  • Scattered at 1,800' AGL
  • Mist
TAF WIMM 251700Z 2518/2618 23004KT 2500 BR SCT018 BECMG 2602/2604 34010KT 9000 FEW017CB SCT018 BECMG 2610/2612 VRB03KT 3000 BR
Issued Apr-25 @ 17:00 UTC
(an hour ago)
Valid From Apr-25 @ 18:00 UTC
(8 minutes ago)
Valid To Apr-26 @ 18:00 UTC
(in 24 hours)
Apr-25 @ 18:00 - Apr-26 @ 02:00
Wind Visibility
230° at 4 knots 2,494 meters
Clouds
  • Scattered at 1,800' AGL
Conditions
  • Mist
Becoming Apr-26 @ 02:00 - Apr-26 @ 10:00
Wind Visibility
340° at 10 knots 8,996 meters
Clouds
  • Few at 1,700' AGL
  • Scattered at 1,800' AGL
Conditions
  • Mist
Becoming Apr-26 @ 10:00 - Apr-26 @ 18:00
Wind Visibility
Variable at 3 knots 2,993 meters
Clouds
  • Few at 1,700' AGL
  • Scattered at 1,800' AGL
Conditions
  • Mist